Time,TemperatureF,DewpointF,PressureIn,WindDirection,WindDirectionDegrees,WindSpeedMPH,WindSpeedGustMPH,Humidity,HourlyPrecipIn,Conditions,Clouds,dailyrainin,SoftwareType,DateUTC
2013-11-22 00:01:00,45.3,42.3,30.36,ESE,118,0.0,0.0,89,0.00,,,0.00,VWS V14.01,2013-11-22 05:01:00,
2013-11-22 00:06:00,45.5,42.5,30.36,ESE,120,0.0,0.0,89,0.00,,,0.00,VWS V14.01,2013-11-22 05:06:00,
2013-11-22 00:11:00,45.6,42.8,30.36,ESE,120,0.0,0.0,90,0.00,,,0.00,VWS V14.01,2013-11-22 05:11:00,
2013-11-22 00:16:00,45.7,42.9,30.35,ESE,118,0.0,0.0,90,0.00,,,0.00,VWS V14.01,2013-11-22 05:16:00,
2013-11-22 00:21:00,45.8,43.0,30.35,ESE,120,0.0,0.0,90,0.00,,,0.00,VWS V14.01,2013-11-22 05:21:00,
2013-11-22 00:26:00,45.9,43.1,30.35,ESE,120,0.0,0.0,90,0.00,,,0.00,VWS V14.01,2013-11-22 05:26:00,
2013-11-22 00:31:00,45.9,42.8,30.35,ESE,120,0.0,0.0,89,0.00,,,0.00,VWS V14.01,2013-11-22 05:31:00,
2013-11-22 00:36:00,46.0,43.0,30.35,ESE,120,0.0,0.0,89,0.00,,,0.00,VWS V14.01,2013-11-22 05:36:00,
2013-11-22 00:41:00,46.0,43.2,30.35,ESE,120,0.0,0.0,90,0.00,,,0.00,VWS V14.01,2013-11-22 05:41:00,
2013-11-22 00:46:00,46.2,43.4,30.35,ESE,120,0.0,0.0,90,0.00,,,0.00,VWS V14.01,2013-11-22 05:46:00,
2013-11-22 00:51:00,46.4,43.6,30.35,ESE,120,0.0,0.0,90,0.00,,,0.00,VWS V14.01,2013-11-22 05:51:00,
2013-11-22 00:56:00,46.5,43.7,30.35,ESE,120,0.0,0.0,90,0.00,,,0.00,VWS V14.01,2013-11-22 05:56:00,
2013-11-22 01:01:00,46.6,43.5,30.35,ESE,120,0.0,0.0,89,0.00,,,0.00,VWS V14.01,2013-11-22 06:01:00,
2013-11-22 01:06:00,46.8,43.7,30.35,ESE,120,0.0,0.0,89,0.00,,,0.00,VWS V14.01,2013-11-22 06:06:00,
2013-11-22 01:11:00,46.9,43.8,30.35,ESE,120,0.0,0.0,89,0.00,,,0.00,VWS V14.01,2013-11-22 06:11:00,
2013-11-22 01:16:00,47.1,44.0,30.34,ESE,120,0.0,0.0,89,0.00,,,0.00,VWS V14.01,2013-11-22 06:16:00,
2013-11-22 01:21:00,47.2,44.1,30.34,ESE,120,0.0,0.0,89,0.00,,,0.00,VWS V14.01,2013-11-22 06:21:00,
2013-11-22 01:26:00,47.3,44.2,30.34,ESE,120,0.0,0.0,89,0.00,,,0.00,VWS V14.01,2013-11-22 06:26:00,
2013-11-22 01:31:00,47.4,44.3,30.33,ESE,120,0.0,0.0,89,0.00,,,0.00,VWS V14.01,2013-11-22 06:31:00,
2013-11-22 01:36:00,47.4,44.0,30.33,ESE,120,0.0,0.0,88,0.00,,,0.00,VWS V14.01,2013-11-22 06:36:00,
2013-11-22 01:41:00,47.5,44.1,30.33,ESE,120,0.0,0.0,88,0.00,,,0.00,VWS V14.01,2013-11-22 06:41:00,
2013-11-22 01:46:00,47.6,44.2,30.33,ESE,120,0.0,0.0,88,0.00,,,0.00,VWS V14.01,2013-11-22 06:46:00,
2013-11-22 01:51:00,47.7,44.3,30.33,ESE,120,0.0,0.0,88,0.00,,,0.00,VWS V14.01,2013-11-22 06:51:00,
2013-11-22 01:56:00,47.7,44.3,30.33,ESE,120,0.0,0.0,88,0.00,,,0.00,VWS V14.01,2013-11-22 06:56:00,
2013-11-22 02:01:00,47.8,44.4,30.33,ESE,120,0.0,0.0,88,0.00,,,0.00,VWS V14.01,2013-11-22 07:01:00,
2013-11-22 02:06:00,47.8,44.4,30.33,ESE,120,0.0,0.0,88,0.00,,,0.00,VWS V14.01,2013-11-22 07:06:00,
2013-11-22 02:11:00,47.9,44.5,30.33,ESE,120,0.0,0.0,88,0.00,,,0.00,VWS V14.01,2013-11-22 07:11:00,
2013-11-22 02:16:00,47.9,44.5,30.33,ESE,120,0.0,0.0,88,0.00,,,0.00,VWS V14.01,2013-11-22 07:16:00,
2013-11-22 02:21:00,48.0,44.6,30.33,ESE,120,0.0,0.0,88,0.00,,,0.00,VWS V14.01,2013-11-22 07:21:00,
2013-11-22 02:26:00,48.1,44.7,30.33,ESE,120,0.0,0.0,88,0.00,,,0.00,VWS V14.01,2013-11-22 07:26:00,
2013-11-22 02:31:00,48.2,44.8,30.33,ESE,120,0.0,0.0,88,0.00,,,0.00,VWS V14.01,2013-11-22 07:31:00,
2013-11-22 02:36:00,48.2,44.8,30.33,ESE,120,0.0,0.0,88,0.00,,,0.00,VWS V14.01,2013-11-22 07:36:00,
2013-11-22 02:41:00,48.3,44.9,30.33,ESE,120,0.0,0.0,88,0.00,,,0.00,VWS V14.01,2013-11-22 07:41:00,
2013-11-22 02:46:00,48.3,44.6,30.33,ESE,120,0.0,0.0,87,0.00,,,0.00,VWS V14.01,2013-11-22 07:46:00,
2013-11-22 02:51:00,48.3,44.6,30.33,ESE,120,0.0,0.0,87,0.00,,,0.00,VWS V14.01,2013-11-22 07:51:00,
2013-11-22 02:56:00,48.3,44.6,30.33,ESE,120,0.0,0.0,87,0.00,,,0.00,VWS V14.01,2013-11-22 07:56:00,
2013-11-22 03:01:00,48.3,44.6,30.33,ESE,120,0.0,0.0,87,0.00,,,0.00,VWS V14.01,2013-11-22 08:01:00,
2013-11-22 03:06:00,48.4,45.0,30.33,ESE,120,0.0,0.0,88,0.00,,,0.00,VWS V14.01,2013-11-22 08:06:00,
2013-11-22 03:11:00,48.5,45.1,30.33,ESE,120,0.0,0.0,88,0.00,,,0.00,VWS V14.01,2013-11-22 08:11:00,
2013-11-22 03:16:00,48.5,45.1,30.32,ESE,120,0.0,0.0,88,0.00,,,0.00,VWS V14.01,2013-11-22 08:16:00,
2013-11-22 03:21:00,48.5,45.1,30.32,ESE,120,0.0,0.0,88,0.00,,,0.00,VWS V14.01,2013-11-22 08:21:00,
2013-11-22 03:26:00,48.5,45.1,30.32,ESE,120,0.0,0.0,88,0.00,,,0.00,VWS V14.01,2013-11-22 08:26:00,
2013-11-22 03:31:00,48.5,45.1,30.32,ESE,120,0.0,0.0,88,0.00,,,0.00,VWS V14.01,2013-11-22 08:31:00,
2013-11-22 03:36:00,48.4,45.0,30.32,ESE,120,0.0,0.0,88,0.00,,,0.00,VWS V14.01,2013-11-22 08:36:00,
2013-11-22 03:41:00,48.2,44.8,30.32,ESE,120,0.0,0.0,88,0.00,,,0.00,VWS V14.01,2013-11-22 08:41:00,
2013-11-22 03:46:00,48.0,44.6,30.31,ESE,120,0.0,0.0,88,0.00,,,0.00,VWS V14.01,2013-11-22 08:46:00,
2013-11-22 03:51:00,47.8,44.7,30.31,ESE,120,0.0,0.0,89,0.00,,,0.00,VWS V14.01,2013-11-22 08:51:00,
2013-11-22 03:56:00,47.7,44.6,30.31,ESE,120,0.0,0.0,89,0.00,,,0.00,VWS V14.01,2013-11-22 08:56:00,
2013-11-22 04:01:00,47.7,44.6,30.32,ESE,120,0.0,0.0,89,0.00,,,0.00,VWS V14.01,2013-11-22 09:01:00,
2013-11-22 04:06:00,47.7,44.9,30.32,ESE,120,0.0,0.0,90,0.00,,,0.00,VWS V14.01,2013-11-22 09:06:00,
2013-11-22 04:11:00,47.7,44.9,30.32,ESE,120,0.0,0.0,90,0.00,,,0.00,VWS V14.01,2013-11-22 09:11:00,
2013-11-22 04:16:00,47.8,45.0,30.31,ESE,120,0.0,0.0,90,0.00,,,0.00,VWS V14.01,2013-11-22 09:16:00,
2013-11-22 04:21:00,47.9,45.1,30.31,ESE,120,0.0,0.0,90,0.00,,,0.00,VWS V14.01,2013-11-22 09:21:00,
2013-11-22 04:26:00,47.9,45.1,30.31,ESE,120,0.0,0.0,90,0.00,,,0.00,VWS V14.01,2013-11-22 09:26:00,
2013-11-22 04:31:00,47.8,45.0,30.31,ESE,120,0.0,0.0,90,0.00,,,0.00,VWS V14.01,2013-11-22 09:31:00,
2013-11-22 04:36:00,47.6,44.5,30.31,ESE,120,0.0,0.0,89,0.00,,,0.00,VWS V14.01,2013-11-22 09:36:00,
2013-11-22 04:41:00,47.4,44.3,30.31,ESE,120,0.0,0.0,89,0.00,,,0.00,VWS V14.01,2013-11-22 09:41:00,
2013-11-22 04:46:00,47.1,44.0,30.29,ESE,120,0.0,0.0,89,0.00,,,0.00,VWS V14.01,2013-11-22 09:46:00,
2013-11-22 04:51:00,46.9,43.8,30.29,ESE,120,0.0,0.0,89,0.00,,,0.00,VWS V14.01,2013-11-22 09:51:00,
2013-11-22 04:56:00,46.6,43.5,30.29,ESE,120,0.0,0.0,89,0.00,,,0.00,VWS V14.01,2013-11-22 09:56:00,
2013-11-22 05:01:00,46.3,43.5,30.29,ESE,120,0.0,0.0,90,0.00,,,0.00,VWS V14.01,2013-11-22 10:01:00,
2013-11-22 05:06:00,46.0,43.2,30.29,ESE,120,0.0,0.0,90,0.00,,,0.00,VWS V14.01,2013-11-22 10:06:00,
2013-11-22 05:11:00,45.7,42.9,30.29,ESE,118,0.0,0.0,90,0.00,,,0.00,VWS V14.01,2013-11-22 10:11:00,
2013-11-22 05:16:00,45.4,42.6,30.29,ESE,118,0.0,0.0,90,0.00,,,0.00,VWS V14.01,2013-11-22 10:16:00,
2013-11-22 05:21:00,45.1,42.3,30.29,ESE,118,0.0,0.0,90,0.00,,,0.00,VWS V14.01,2013-11-22 10:21:00,
2013-11-22 05:26:00,44.8,42.3,30.29,ESE,118,0.0,0.0,91,0.00,,,0.00,VWS V14.01,2013-11-22 10:26:00,
2013-11-22 05:31:00,44.5,42.0,30.30,ESE,118,0.0,0.0,91,0.00,,,0.00,VWS V14.01,2013-11-22 10:31:00,
2013-11-22 05:36:00,44.4,41.9,30.30,ESE,118,0.0,0.0,91,0.00,,,0.00,VWS V14.01,2013-11-22 10:36:00,
2013-11-22 05:41:00,44.3,41.8,30.30,ESE,118,0.0,0.0,91,0.00,,,0.00,VWS V14.01,2013-11-22 10:41:00,
2013-11-22 05:46:00,44.1,41.9,30.30,ESE,119,0.0,0.0,92,0.00,,,0.00,VWS V14.01,2013-11-22 10:46:00,
2013-11-22 05:51:00,44.1,41.9,30.30,ESE,120,0.0,0.0,92,0.00,,,0.00,VWS V14.01,2013-11-22 10:51:00,
2013-11-22 05:56:00,44.1,41.9,30.30,ESE,118,0.0,0.0,92,0.00,,,0.00,VWS V14.01,2013-11-22 10:56:00,
2013-11-22 06:01:00,44.2,42.3,30.30,ESE,118,0.0,0.0,93,0.00,,,0.00,VWS V14.01,2013-11-22 11:01:00,
2013-11-22 06:06:00,44.3,42.4,30.30,ESE,118,0.0,0.0,93,0.00,,,0.00,VWS V14.01,2013-11-22 11:06:00,
2013-11-22 06:11:00,44.4,42.5,30.30,ESE,118,0.0,0.0,93,0.00,,,0.00,VWS V14.01,2013-11-22 11:11:00,
2013-11-22 06:16:00,44.7,42.8,30.29,ESE,118,0.0,0.0,93,0.00,,,0.00,VWS V14.01,2013-11-22 11:16:00,
2013-11-22 06:21:00,44.8,42.9,30.29,ESE,118,0.0,0.0,93,0.00,,,0.00,VWS V14.01,2013-11-22 11:21:00,
2013-11-22 06:26:00,45.0,43.1,30.29,ESE,120,0.0,0.0,93,0.00,,,0.00,VWS V14.01,2013-11-22 11:26:00,
2013-11-22 06:31:00,45.1,43.2,30.28,ESE,120,0.0,0.0,93,0.00,,,0.00,VWS V14.01,2013-11-22 11:31:00,
2013-11-22 06:36:00,45.3,43.4,30.28,ESE,118,0.0,0.0,93,0.00,,,0.00,VWS V14.01,2013-11-22 11:36:00,
2013-11-22 06:41:00,45.5,43.6,30.28,ESE,120,0.0,0.0,93,0.00,,,0.00,VWS V14.01,2013-11-22 11:41:00,
2013-11-22 06:46:00,45.6,43.7,30.28,ESE,118,0.0,0.0,93,0.00,,,0.00,VWS V14.01,2013-11-22 11:46:00,
2013-11-22 06:51:00,45.7,43.8,30.28,ESE,120,0.0,0.0,93,0.00,,,0.00,VWS V14.01,2013-11-22 11:51:00,
2013-11-22 06:56:00,45.8,43.9,30.28,ESE,120,0.0,0.0,93,0.00,,,0.00,VWS V14.01,2013-11-22 11:56:00,
2013-11-22 07:01:00,45.8,43.9,30.27,ESE,118,0.0,0.0,93,0.00,,,0.00,VWS V14.01,2013-11-22 12:01:00,
2013-11-22 07:06:00,45.8,43.6,30.27,ESE,120,0.0,0.0,92,0.00,,,0.00,VWS V14.01,2013-11-22 12:06:00,
2013-11-22 07:11:00,45.7,43.5,30.27,ESE,118,0.0,0.0,92,0.00,,,0.00,VWS V14.01,2013-11-22 12:11:00,
2013-11-22 07:16:00,45.7,43.5,30.27,ESE,120,0.0,0.0,92,0.00,,,0.00,VWS V14.01,2013-11-22 12:16:00,
2013-11-22 07:21:00,45.6,43.4,30.27,ESE,118,0.0,0.0,92,0.00,,,0.00,VWS V14.01,2013-11-22 12:21:00,
2013-11-22 07:26:00,45.5,43.3,30.27,ESE,120,0.0,0.0,92,0.00,,,0.00,VWS V14.01,2013-11-22 12:26:00,
2013-11-22 07:31:00,45.5,43.6,30.28,ESE,118,0.0,0.0,93,0.00,,,0.00,VWS V14.01,2013-11-22 12:31:00,
2013-11-22 07:36:00,45.5,43.6,30.28,ESE,120,0.0,0.0,93,0.00,,,0.00,VWS V14.01,2013-11-22 12:36:00,
2013-11-22 07:40:00,45.5,43.6,30.28,ESE,120,0.0,0.0,93,0.00,,,0.00,VWS V14.01,2013-11-22 12:40:00,
2013-11-22 07:45:00,45.7,43.8,30.28,ESE,120,0.0,0.0,93,0.00,,,0.00,VWS V14.01,2013-11-22 12:45:00,
2013-11-22 07:50:00,45.9,44.0,30.28,ESE,120,0.0,0.0,93,0.00,,,0.00,VWS V14.01,2013-11-22 12:50:00,
2013-11-22 07:55:00,46.1,44.5,30.28,ESE,120,0.0,0.0,94,0.00,,,0.00,VWS V14.01,2013-11-22 12:55:00,
2013-11-22 08:01:00,46.3,44.7,30.29,ESE,120,0.0,0.0,94,0.00,,,0.00,VWS V14.01,2013-11-22 13:01:00,
2013-11-22 08:06:00,46.7,45.1,30.29,ESE,120,0.0,0.0,94,0.00,,,0.00,VWS V14.01,2013-11-22 13:06:00,
2013-11-22 08:11:00,47.1,45.5,30.29,ESE,120,0.0,0.0,94,0.00,,,0.00,VWS V14.01,2013-11-22 13:11:00,
2013-11-22 08:16:00,47.6,46.0,30.29,ESE,120,0.0,0.0,94,0.00,,,0.00,VWS V14.01,2013-11-22 13:16:00,
2013-11-22 08:21:00,48.0,46.1,30.29,ESE,120,0.0,0.0,93,0.00,,,0.00,VWS V14.01,2013-11-22 13:21:00,
2013-11-22 08:26:00,48.6,46.7,30.29,ESE,120,0.0,0.0,93,0.00,,,0.00,VWS V14.01,2013-11-22 13:26:00,
2013-11-22 08:31:00,49.2,47.3,30.29,ESE,120,0.0,0.0,93,0.00,,,0.00,VWS V14.01,2013-11-22 13:31:00,
2013-11-22 08:36:00,49.8,47.6,30.29,ESE,120,0.0,0.0,92,0.00,,,0.00,VWS V14.01,2013-11-22 13:36:00,
2013-11-22 08:41:00,50.3,47.5,30.29,ESE,119,0.0,0.0,90,0.00,,,0.00,VWS V14.01,2013-11-22 13:41:00,
2013-11-22 08:46:00,50.8,47.7,30.29,ESE,120,0.0,0.0,89,0.00,,,0.00,VWS V14.01,2013-11-22 13:46:00,
2013-11-22 08:51:00,51.2,47.8,30.29,ESE,120,0.0,0.0,88,0.00,,,0.00,VWS V14.01,2013-11-22 13:51:00,
2013-11-22 08:56:00,51.5,47.8,30.29,ESE,120,0.0,0.0,87,0.00,,,0.00,VWS V14.01,2013-11-22 13:56:00,
2013-11-22 09:01:00,51.9,48.2,30.29,SE,136,0.0,0.0,87,0.00,,,0.00,VWS V14.01,2013-11-22 14:01:00,
2013-11-22 09:06:00,52.3,48.2,30.29,SE,136,0.0,0.0,86,0.00,,,0.00,VWS V14.01,2013-11-22 14:06:00,
2013-11-22 09:11:00,52.6,48.2,30.29,SE,136,0.0,0.0,85,0.00,,,0.00,VWS V14.01,2013-11-22 14:11:00,
2013-11-22 09:16:00,53.0,48.6,30.27,SE,136,0.0,0.0,85,0.00,,,0.00,VWS V14.01,2013-11-22 14:16:00,
2013-11-22 09:21:00,53.3,48.9,30.27,SE,136,0.0,0.0,85,0.00,,,0.00,VWS V14.01,2013-11-22 14:21:00,
2013-11-22 09:26:00,53.6,48.9,30.27,SE,136,0.0,0.0,84,0.00,,,0.00,VWS V14.01,2013-11-22 14:26:00,
2013-11-22 09:31:00,53.9,48.9,30.28,SE,136,0.0,0.0,83,0.00,,,0.00,VWS V14.01,2013-11-22 14:31:00,
2013-11-22 09:36:00,54.1,49.1,30.28,SE,136,0.0,0.0,83,0.00,,,0.00,VWS V14.01,2013-11-22 14:36:00,
2013-11-22 09:41:00,54.4,49.3,30.28,SE,137,0.0,0.0,83,0.00,,,0.00,VWS V14.01,2013-11-22 14:41:00,
2013-11-22 09:46:00,54.7,49.3,30.28,SE,136,0.0,0.0,82,0.00,,,0.00,VWS V14.01,2013-11-22 14:46:00,
2013-11-22 09:51:00,54.8,49.1,30.28,SE,137,0.0,0.0,81,0.00,,,0.00,VWS V14.01,2013-11-22 14:51:00,
2013-11-22 09:56:00,54.9,49.2,30.28,SE,136,0.0,0.0,81,0.00,,,0.00,VWS V14.01,2013-11-22 14:56:00,
2013-11-22 10:01:00,55.0,49.6,30.27,SE,136,0.0,0.0,82,0.00,,,0.00,VWS V14.01,2013-11-22 15:01:00,
2013-11-22 10:06:00,55.1,49.4,30.27,SE,136,0.0,0.0,81,0.00,,,0.00,VWS V14.01,2013-11-22 15:06:00,
2013-11-22 10:11:00,55.3,49.9,30.27,SE,138,0.0,0.0,82,0.00,,,0.00,VWS V14.01,2013-11-22 15:11:00,
2013-11-22 10:16:00,55.5,49.8,30.27,SE,136,0.0,0.0,81,0.00,,,0.00,VWS V14.01,2013-11-22 15:16:00,
2013-11-22 10:21:00,55.8,50.1,30.27,ESE,117,0.0,0.0,81,0.00,,,0.00,VWS V14.01,2013-11-22 15:21:00,
2013-11-22 10:26:00,55.9,50.2,30.27,NNE,29,0.0,0.0,81,0.00,,,0.00,VWS V14.01,2013-11-22 15:26:00,
2013-11-22 10:31:00,56.2,50.5,30.27,NNE,29,0.0,0.0,81,0.00,,,0.00,VWS V14.01,2013-11-22 15:31:00,
2013-11-22 10:36:00,56.4,50.3,30.27,NNE,30,0.0,0.0,80,0.00,,,0.00,VWS V14.01,2013-11-22 15:36:00,
2013-11-22 10:41:00,56.6,50.8,30.27,NNE,33,0.0,0.0,81,0.00,,,0.00,VWS V14.01,2013-11-22 15:41:00,
2013-11-22 10:46:00,56.9,51.1,30.27,NNE,29,0.0,0.0,81,0.00,,,0.00,VWS V14.01,2013-11-22 15:46:00,
2013-11-22 10:51:00,57.2,51.8,30.27,NNE,29,0.0,0.0,82,0.00,,,0.00,VWS V14.01,2013-11-22 15:51:00,
2013-11-22 10:56:00,57.5,52.1,30.27,NE,39,0.0,0.0,82,0.00,,,0.00,VWS V14.01,2013-11-22 15:56:00,
2013-11-22 11:01:00,57.8,52.3,30.26,NE,38,0.0,0.0,82,0.00,,,0.00,VWS V14.01,2013-11-22 16:01:00,
2013-11-22 11:06:00,58.3,52.5,30.26,East,96,0.0,0.0,81,0.00,,,0.00,VWS V14.01,2013-11-22 16:06:00,
2013-11-22 11:11:00,58.8,53.0,30.26,ESE,121,0.0,0.0,81,0.00,,,0.00,VWS V14.01,2013-11-22 16:11:00,
2013-11-22 11:16:00,59.2,53.0,30.25,ESE,121,0.0,0.0,80,0.00,,,0.00,VWS V14.01,2013-11-22 16:16:00,
2013-11-22 11:21:00,59.5,53.3,30.25,ESE,107,0.0,0.0,80,0.00,,,0.00,VWS V14.01,2013-11-22 16:21:00,
2013-11-22 11:25:00,59.7,53.2,30.25,NNW,336,0.0,0.0,79,0.00,,,0.00,VWS V14.01,2013-11-22 16:25:00,
2013-11-22 11:30:00,60.0,54.2,30.24,ENE,61,0.0,0.0,81,0.00,,,0.00,VWS V14.01,2013-11-22 16:30:00,
2013-11-22 11:35:00,60.3,53.8,30.24,East,94,0.0,0.0,79,0.00,,,0.00,VWS V14.01,2013-11-22 16:35:00,
2013-11-22 11:40:00,60.7,54.2,30.24,NNW,343,0.0,0.0,79,0.00,,,0.00,VWS V14.01,2013-11-22 16:40:00,
2013-11-22 11:45:00,61.0,54.1,30.23,NW,320,0.0,0.0,78,0.00,,,0.00,VWS V14.01,2013-11-22 16:45:00,
2013-11-22 11:50:00,61.3,54.4,30.23,ESE,108,0.0,0.0,78,0.00,,,0.00,VWS V14.01,2013-11-22 16:50:00,
2013-11-22 11:55:00,61.6,55.0,30.23,East,89,0.0,0.0,79,0.00,,,0.00,VWS V14.01,2013-11-22 16:55:00,
2013-11-22 12:00:00,61.9,55.0,30.22,ESE,108,0.0,1.0,78,0.00,,,0.00,VWS V14.01,2013-11-22 17:00:00,
2013-11-22 12:05:00,62.3,55.4,30.22,ESE,113,0.0,1.0,78,0.00,,,0.00,VWS V14.01,2013-11-22 17:05:00,
2013-11-22 12:10:00,62.8,55.8,30.22,North,359,0.0,1.0,78,0.00,,,0.00,VWS V14.01,2013-11-22 17:10:00,
2013-11-22 12:15:00,63.3,56.3,30.21,ESE,121,2.0,2.0,78,0.00,,,0.00,VWS V14.01,2013-11-22 17:15:00,
2013-11-22 12:20:00,63.6,56.3,30.21,SE,124,0.0,3.0,77,0.00,,,0.00,VWS V14.01,2013-11-22 17:20:00,
2013-11-22 12:25:00,63.4,56.1,30.21,NNE,20,0.0,0.0,77,0.00,,,0.00,VWS V14.01,2013-11-22 17:25:00,
2013-11-22 12:30:00,63.4,56.8,30.20,ESE,106,0.0,0.0,79,0.00,,,0.00,VWS V14.01,2013-11-22 17:30:00,
2013-11-22 12:35:00,63.6,56.6,30.20,NW,305,0.0,0.0,78,0.00,,,0.00,VWS V14.01,2013-11-22 17:35:00,
2013-11-22 12:40:00,63.8,56.5,30.20,NNW,329,0.0,0.0,77,0.00,,,0.00,VWS V14.01,2013-11-22 17:40:00,
2013-11-22 12:45:00,63.7,56.4,30.19,ENE,77,0.0,1.0,77,0.00,,,0.00,VWS V14.01,2013-11-22 17:45:00,
2013-11-22 12:50:00,63.9,56.6,30.19,WNW,303,0.0,0.0,77,0.00,,,0.00,VWS V14.01,2013-11-22 17:50:00,
2013-11-22 12:55:00,64.2,56.8,30.19,ENE,75,0.0,1.0,77,0.00,,,0.00,VWS V14.01,2013-11-22 17:55:00,
2013-11-22 13:00:00,64.3,57.0,30.18,ESE,104,0.0,2.0,77,0.00,,,0.00,VWS V14.01,2013-11-22 18:00:00,
2013-11-22 13:05:00,64.5,56.8,30.18,NW,316,0.0,0.0,76,0.00,,,0.00,VWS V14.01,2013-11-22 18:05:00,
2013-11-22 13:10:00,64.7,57.0,30.18,ESE,108,1.0,4.0,76,0.00,,,0.00,VWS V14.01,2013-11-22 18:10:00,
2013-11-22 13:15:00,65.4,57.7,30.17,SW,236,0.0,3.0,76,0.00,,,0.00,VWS V14.01,2013-11-22 18:15:00,
2013-11-22 13:20:00,66.0,57.5,30.17,SE,129,0.0,4.0,74,0.00,,,0.00,VWS V14.01,2013-11-22 18:20:00,
2013-11-22 13:25:00,66.5,58.0,30.17,ESE,104,0.0,2.0,74,0.00,,,0.00,VWS V14.01,2013-11-22 18:25:00,
2013-11-22 13:30:00,66.6,58.1,30.16,SE,127,0.0,1.0,74,0.00,,,0.00,VWS V14.01,2013-11-22 18:30:00,
2013-11-22 13:35:00,66.6,57.7,30.16,SE,133,0.0,3.0,73,0.00,,,0.00,VWS V14.01,2013-11-22 18:35:00,
2013-11-22 13:40:00,66.7,57.8,30.16,SE,133,0.0,3.0,73,0.00,,,0.00,VWS V14.01,2013-11-22 18:40:00,
2013-11-22 13:45:00,66.6,57.7,30.16,NNW,344,0.0,0.0,73,0.00,,,0.00,VWS V14.01,2013-11-22 18:45:00,
2013-11-22 13:50:00,66.4,57.9,30.16,NW,326,0.0,0.0,74,0.00,,,0.00,VWS V14.01,2013-11-22 18:50:00,
2013-11-22 13:55:00,66.3,57.8,30.16,East,80,0.0,0.0,74,0.00,,,0.00,VWS V14.01,2013-11-22 18:55:00,
2013-11-22 14:00:00,66.5,58.3,30.15,SE,129,0.0,0.0,75,0.00,,,0.00,VWS V14.01,2013-11-22 19:00:00,
2013-11-22 14:05:00,66.9,58.3,30.15,ESE,107,0.0,0.0,74,0.00,,,0.00,VWS V14.01,2013-11-22 19:05:00,
2013-11-22 14:10:00,67.1,58.5,30.15,ESE,112,0.0,0.0,74,0.00,,,0.00,VWS V14.01,2013-11-22 19:10:00,
2013-11-22 14:15:00,67.1,58.5,30.14,NW,311,0.0,0.0,74,0.00,,,0.00,VWS V14.01,2013-11-22 19:15:00,
2013-11-22 14:20:00,67.2,58.6,30.14,NW,318,0.0,0.0,74,0.00,,,0.00,VWS V14.01,2013-11-22 19:20:00,
2013-11-22 14:25:00,67.2,59.0,30.14,ESE,121,0.0,0.0,75,0.00,,,0.00,VWS V14.01,2013-11-22 19:25:00,
2013-11-22 14:30:00,67.3,59.1,30.13,SE,146,0.0,0.0,75,0.00,,,0.00,VWS V14.01,2013-11-22 19:30:00,
2013-11-22 14:35:00,67.5,59.3,30.13,NE,42,0.0,0.0,75,0.00,,,0.00,VWS V14.01,2013-11-22 19:35:00,
2013-11-22 14:40:00,68.0,59.4,30.13,ENE,72,0.0,4.0,74,0.00,,,0.00,VWS V14.01,2013-11-22 19:40:00,
2013-11-22 14:45:00,68.6,59.6,30.12,SE,131,0.0,2.0,73,0.00,,,0.00,VWS V14.01,2013-11-22 19:45:00,
2013-11-22 14:50:00,69.2,59.8,30.12,NE,44,0.0,2.0,72,0.00,,,0.00,VWS V14.01,2013-11-22 19:50:00,
2013-11-22 14:55:00,69.6,59.8,30.12,West,277,2.0,3.0,71,0.00,,,0.00,VWS V14.01,2013-11-22 19:55:00,
2013-11-22 15:00:00,69.9,59.7,30.12,NW,315,1.0,2.0,70,0.00,,,0.00,VWS V14.01,2013-11-22 20:00:00,
2013-11-22 15:05:00,70.1,59.5,30.12,South,170,0.0,2.0,69,0.00,,,0.00,VWS V14.01,2013-11-22 20:05:00,
2013-11-22 15:10:00,70.2,59.6,30.12,NW,325,0.0,6.0,69,0.00,,,0.00,VWS V14.01,2013-11-22 20:10:00,
2013-11-22 15:15:00,70.2,59.6,30.12,NW,311,0.0,2.0,69,0.00,,,0.00,VWS V14.01,2013-11-22 20:15:00,
2013-11-22 15:20:00,70.1,59.5,30.12,SSE,158,0.0,1.0,69,0.00,,,0.00,VWS V14.01,2013-11-22 20:20:00,
2013-11-22 15:25:00,69.9,59.3,30.12,NW,314,2.0,3.0,69,0.00,,,0.00,VWS V14.01,2013-11-22 20:25:00,
2013-11-22 15:30:00,69.8,59.6,30.12,East,80,0.0,1.0,70,0.00,,,0.00,VWS V14.01,2013-11-22 20:30:00,
2013-11-22 15:35:00,69.8,59.2,30.12,North,351,0.0,3.0,69,0.00,,,0.00,VWS V14.01,2013-11-22 20:35:00,
2013-11-22 15:40:00,69.4,59.2,30.12,East,99,0.0,3.0,70,0.00,,,0.00,VWS V14.01,2013-11-22 20:40:00,
2013-11-22 15:45:00,69.0,58.8,30.12,ENE,72,0.0,2.0,70,0.00,,,0.00,VWS V14.01,2013-11-22 20:45:00,
2013-11-22 15:50:00,68.8,59.0,30.12,ESE,114,0.0,4.0,71,0.00,,,0.00,VWS V14.01,2013-11-22 20:50:00,
2013-11-22 15:55:00,68.8,59.4,30.12,NNE,26,0.0,0.0,72,0.00,,,0.00,VWS V14.01,2013-11-22 20:55:00,
2013-11-22 16:00:00,68.7,59.3,30.11,SE,131,0.0,1.0,72,0.00,,,0.00,VWS V14.01,2013-11-22 21:00:00,
2013-11-22 16:05:00,68.6,59.2,30.11,NW,305,0.0,0.0,72,0.00,,,0.00,VWS V14.01,2013-11-22 21:05:00,
2013-11-22 16:10:00,68.3,58.9,30.11,NE,34,0.0,1.0,72,0.00,,,0.00,VWS V14.01,2013-11-22 21:10:00,
2013-11-22 16:15:00,68.0,58.7,30.11,ESE,111,1.0,3.0,72,0.00,,,0.00,VWS V14.01,2013-11-22 21:15:00,
2013-11-22 16:20:00,67.8,58.8,30.11,North,350,0.0,0.0,73,0.00,,,0.00,VWS V14.01,2013-11-22 21:20:00,
2013-11-22 16:25:00,67.6,58.7,30.11,North,350,0.0,0.0,73,0.00,,,0.00,VWS V14.01,2013-11-22 21:25:00,
2013-11-22 16:30:00,67.3,58.7,30.11,ENE,76,0.0,0.0,74,0.00,,,0.00,VWS V14.01,2013-11-22 21:30:00,
2013-11-22 16:35:00,67.1,58.5,30.11,NE,37,0.0,0.0,74,0.00,,,0.00,VWS V14.01,2013-11-22 21:35:00,
2013-11-22 16:40:00,66.8,58.6,30.11,ENE,70,0.0,4.0,75,0.00,,,0.00,VWS V14.01,2013-11-22 21:40:00,
2013-11-22 16:45:00,66.6,58.4,30.11,ESE,103,0.0,1.0,75,0.00,,,0.00,VWS V14.01,2013-11-22 21:45:00,
2013-11-22 16:50:00,66.3,58.5,30.11,ESE,102,0.0,0.0,76,0.00,,,0.00,VWS V14.01,2013-11-22 21:50:00,
2013-11-22 16:55:00,66.1,58.3,30.11,ENE,64,0.0,0.0,76,0.00,,,0.00,VWS V14.01,2013-11-22 21:55:00,
2013-11-22 17:00:00,65.9,58.5,30.10,ENE,64,0.0,0.0,77,0.00,,,0.00,VWS V14.01,2013-11-22 22:00:00,
2013-11-22 17:05:00,65.6,58.2,30.10,ENE,64,0.0,0.0,77,0.00,,,0.00,VWS V14.01,2013-11-22 22:05:00,
2013-11-22 17:10:00,65.2,58.2,30.10,ENE,64,0.0,0.0,78,0.00,,,0.00,VWS V14.01,2013-11-22 22:10:00,
2013-11-22 17:15:00,64.9,58.2,30.10,ENE,64,0.0,0.0,79,0.00,,,0.00,VWS V14.01,2013-11-22 22:15:00,
2013-11-22 17:20:00,64.6,58.0,30.10,ENE,62,0.0,0.0,79,0.00,,,0.00,VWS V14.01,2013-11-22 22:20:00,
2013-11-22 17:25:00,64.3,58.0,30.10,ENE,63,0.0,0.0,80,0.00,,,0.00,VWS V14.01,2013-11-22 22:25:00,
2013-11-22 17:30:00,64.1,57.8,30.10,ENE,63,0.0,0.0,80,0.00,,,0.00,VWS V14.01,2013-11-22 22:30:00,
2013-11-22 17:35:00,63.9,57.6,30.10,ENE,63,0.0,0.0,80,0.00,,,0.00,VWS V14.01,2013-11-22 22:35:00,
2013-11-22 17:40:00,63.6,57.7,30.10,ENE,62,0.0,0.0,81,0.00,,,0.00,VWS V14.01,2013-11-22 22:40:00,
2013-11-22 17:45:00,63.3,57.4,30.09,ENE,62,0.0,0.0,81,0.00,,,0.00,VWS V14.01,2013-11-22 22:45:00,
2013-11-22 17:50:00,63.0,57.4,30.09,ENE,63,0.0,0.0,82,0.00,,,0.00,VWS V14.01,2013-11-22 22:50:00,
2013-11-22 17:55:00,62.8,57.2,30.09,ENE,62,0.0,0.0,82,0.00,,,0.00,VWS V14.01,2013-11-22 22:55:00,
2013-11-22 18:00:00,62.6,57.4,30.09,ENE,62,0.0,0.0,83,0.00,,,0.00,VWS V14.01,2013-11-22 23:00:00,
2013-11-22 18:05:00,62.5,57.3,30.09,ENE,62,0.0,0.0,83,0.00,,,0.00,VWS V14.01,2013-11-22 23:05:00,
2013-11-22 18:10:00,62.6,57.4,30.09,East,94,0.0,0.0,83,0.00,,,0.00,VWS V14.01,2013-11-22 23:10:00,
2013-11-22 18:15:00,62.5,57.3,30.09,East,94,0.0,0.0,83,0.00,,,0.00,VWS V14.01,2013-11-22 23:15:00,
2013-11-22 18:20:00,62.4,57.2,30.09,East,93,0.0,0.0,83,0.00,,,0.00,VWS V14.01,2013-11-22 23:20:00,
2013-11-22 18:25:00,62.2,57.0,30.09,East,94,0.0,0.0,83,0.00,,,0.00,VWS V14.01,2013-11-22 23:25:00,
2013-11-22 18:30:00,62.0,57.1,30.08,East,93,0.0,0.0,84,0.00,,,0.00,VWS V14.01,2013-11-22 23:30:00,
2013-11-22 18:35:00,61.8,56.9,30.08,East,94,0.0,0.0,84,0.00,,,0.00,VWS V14.01,2013-11-22 23:35:00,
2013-11-22 18:40:00,61.7,56.8,30.08,East,80,0.0,0.0,84,0.00,,,0.00,VWS V14.01,2013-11-22 23:40:00,
2013-11-22 18:45:00,61.7,57.2,30.08,East,80,0.0,0.0,85,0.00,,,0.00,VWS V14.01,2013-11-22 23:45:00,
2013-11-22 18:50:00,62.0,57.5,30.08,East,92,0.0,0.0,85,0.00,,,0.00,VWS V14.01,2013-11-22 23:50:00,
2013-11-22 18:55:00,62.1,57.2,30.08,East,79,0.0,0.0,84,0.00,,,0.00,VWS V14.01,2013-11-22 23:55:00,
2013-11-22 19:00:00,62.3,57.4,30.08,SE,138,0.0,1.0,84,0.00,,,0.00,VWS V14.01,2013-11-23 00:00:00,
2013-11-22 19:05:00,62.5,57.6,30.08,SE,139,0.0,0.0,84,0.00,,,0.00,VWS V14.01,2013-11-23 00:05:00,
2013-11-22 19:10:00,62.6,57.7,30.08,NW,323,0.0,0.0,84,0.00,,,0.00,VWS V14.01,2013-11-23 00:10:00,
2013-11-22 19:15:00,62.7,57.5,30.08,North,6,0.0,0.0,83,0.00,,,0.00,VWS V14.01,2013-11-23 00:15:00,
2013-11-22 19:20:00,62.7,57.5,30.08,North,6,0.0,0.0,83,0.00,,,0.00,VWS V14.01,2013-11-23 00:20:00,
2013-11-22 19:25:00,62.6,57.4,30.08,North,6,0.0,0.0,83,0.00,,,0.00,VWS V14.01,2013-11-23 00:25:00,
2013-11-22 19:30:00,62.4,57.2,30.08,North,6,0.0,0.0,83,0.00,,,0.00,VWS V14.01,2013-11-23 00:30:00,
2013-11-22 19:35:00,62.3,57.4,30.08,North,6,0.0,0.0,84,0.00,,,0.00,VWS V14.01,2013-11-23 00:35:00,
2013-11-22 19:40:00,62.2,57.3,30.08,ESE,103,1.0,1.0,84,0.00,,,0.00,VWS V14.01,2013-11-23 00:40:00,
2013-11-22 19:45:00,62.3,57.4,30.08,East,99,0.0,0.0,84,0.00,,,0.00,VWS V14.01,2013-11-23 00:45:00,
2013-11-22 19:50:00,62.3,57.4,30.08,East,89,0.0,0.0,84,0.00,,,0.00,VWS V14.01,2013-11-23 00:50:00,
2013-11-22 19:55:00,62.4,57.5,30.08,NW,326,0.0,0.0,84,0.00,,,0.00,VWS V14.01,2013-11-23 00:55:00,
2013-11-22 20:00:00,62.5,57.6,30.06,NNW,327,0.0,0.0,84,0.00,,,0.00,VWS V14.01,2013-11-23 01:00:00,
2013-11-22 20:05:00,62.5,57.6,30.06,ENE,61,0.0,0.0,84,0.00,,,0.00,VWS V14.01,2013-11-23 01:05:00,
2013-11-22 20:10:00,62.6,57.7,30.06,East,79,0.0,0.0,84,0.00,,,0.00,VWS V14.01,2013-11-23 01:10:00,
2013-11-22 20:15:00,62.6,57.7,30.06,East,79,0.0,0.0,84,0.00,,,0.00,VWS V14.01,2013-11-23 01:15:00,
2013-11-22 20:20:00,62.7,58.1,30.06,NE,52,0.0,0.0,85,0.00,,,0.00,VWS V14.01,2013-11-23 01:20:00,
2013-11-22 20:25:00,62.6,58.0,30.06,NNE,30,0.0,0.0,85,0.00,,,0.00,VWS V14.01,2013-11-23 01:25:00,
2013-11-22 20:30:00,62.5,58.3,30.06,East,94,0.0,0.0,86,0.00,,,0.00,VWS V14.01,2013-11-23 01:30:00,
2013-11-22 20:35:00,62.5,58.3,30.06,ENE,78,0.0,0.0,86,0.00,,,0.00,VWS V14.01,2013-11-23 01:35:00,
2013-11-22 20:40:00,62.4,58.2,30.06,ENE,78,0.0,0.0,86,0.00,,,0.00,VWS V14.01,2013-11-23 01:40:00,
2013-11-22 20:45:00,62.2,58.0,30.06,ENE,77,0.0,0.0,86,0.00,,,0.00,VWS V14.01,2013-11-23 01:45:00,
2013-11-22 20:50:00,62.2,58.0,30.06,ENE,67,0.0,0.0,86,0.00,,,0.00,VWS V14.01,2013-11-23 01:50:00,
2013-11-22 20:55:00,62.2,58.0,30.06,NNE,20,0.0,0.0,86,0.00,,,0.00,VWS V14.01,2013-11-23 01:55:00,
2013-11-22 21:00:00,62.2,58.3,30.05,NE,34,0.0,0.0,87,0.00,,,0.00,VWS V14.01,2013-11-23 02:00:00,
2013-11-22 21:05:00,62.2,58.3,30.05,NE,34,0.0,0.0,87,0.00,,,0.00,VWS V14.01,2013-11-23 02:05:00,
2013-11-22 21:10:00,62.2,58.3,30.05,NNE,31,0.0,0.0,87,0.00,,,0.00,VWS V14.01,2013-11-23 02:10:00,
2013-11-22 21:15:00,62.2,58.3,30.05,NNE,32,0.0,0.0,87,0.00,,,0.00,VWS V14.01,2013-11-23 02:15:00,
2013-11-22 21:20:00,62.1,58.2,30.05,NE,34,0.0,0.0,87,0.00,,,0.00,VWS V14.01,2013-11-23 02:20:00,
2013-11-22 21:25:00,62.1,58.2,30.05,North,354,0.0,0.0,87,0.00,,,0.00,VWS V14.01,2013-11-23 02:25:00,
2013-11-22 21:30:00,62.2,58.3,30.05,NNW,338,0.0,0.0,87,0.00,,,0.00,VWS V14.01,2013-11-23 02:30:00,
2013-11-22 21:35:00,62.2,58.3,30.05,NE,36,0.0,0.0,87,0.00,,,0.00,VWS V14.01,2013-11-23 02:35:00,
2013-11-22 21:40:00,62.3,58.4,30.05,NE,36,0.0,0.0,87,0.00,,,0.00,VWS V14.01,2013-11-23 02:40:00,
2013-11-22 21:45:00,62.3,58.4,30.04,SE,127,0.0,0.0,87,0.00,,,0.00,VWS V14.01,2013-11-23 02:45:00,
2013-11-22 21:50:00,62.3,58.4,30.04,SE,127,0.0,0.0,87,0.00,,,0.00,VWS V14.01,2013-11-23 02:50:00,
2013-11-22 21:55:00,62.2,58.3,30.04,NNW,346,0.0,0.0,87,0.00,,,0.00,VWS V14.01,2013-11-23 02:55:00,
2013-11-22 22:00:00,62.2,58.3,30.04,NNW,347,0.0,0.0,87,0.00,,,0.00,VWS V14.01,2013-11-23 03:00:00,
2013-11-22 22:05:00,62.2,58.3,30.04,NE,34,0.0,0.0,87,0.00,,,0.00,VWS V14.01,2013-11-23 03:05:00,
2013-11-22 22:10:00,62.2,58.3,30.04,NE,35,0.0,0.0,87,0.00,,,0.00,VWS V14.01,2013-11-23 03:10:00,
2013-11-22 22:15:00,62.2,58.3,30.05,NNE,15,0.0,0.0,87,0.00,,,0.00,VWS V14.01,2013-11-23 03:15:00,
2013-11-22 22:20:00,62.3,58.4,30.05,NNE,18,0.0,0.0,87,0.00,,,0.00,VWS V14.01,2013-11-23 03:20:00,
2013-11-22 22:25:00,62.3,58.4,30.05,NNE,18,0.0,0.0,87,0.00,,,0.00,VWS V14.01,2013-11-23 03:25:00,
2013-11-22 22:30:00,62.4,58.5,30.06,NNE,18,0.0,0.0,87,0.00,,,0.00,VWS V14.01,2013-11-23 03:30:00,
2013-11-22 22:35:00,62.4,58.5,30.06,ENE,62,0.0,0.0,87,0.00,,,0.00,VWS V14.01,2013-11-23 03:35:00,
2013-11-22 22:40:00,62.2,58.6,30.06,NE,46,0.0,0.0,88,0.00,,,0.00,VWS V14.01,2013-11-23 03:40:00,
2013-11-22 22:45:00,62.1,58.5,30.05,NE,46,0.0,0.0,88,0.00,,,0.00,VWS V14.01,2013-11-23 03:45:00,
2013-11-22 22:50:00,62.0,58.7,30.05,NE,43,0.0,0.0,89,0.00,,,0.00,VWS V14.01,2013-11-23 03:50:00,
2013-11-22 22:55:00,61.8,58.5,30.05,ESE,107,0.0,0.0,89,0.00,,,0.00,VWS V14.01,2013-11-23 03:55:00,
2013-11-22 23:00:00,61.7,58.4,30.05,ESE,109,0.0,0.0,89,0.00,,,0.00,VWS V14.01,2013-11-23 04:00:00,
2013-11-22 23:05:00,61.6,58.3,30.05,ESE,102,0.0,0.0,89,0.00,,,0.00,VWS V14.01,2013-11-23 04:05:00,
2013-11-22 23:10:00,61.6,58.6,30.05,East,98,0.0,0.0,90,0.00,,,0.00,VWS V14.01,2013-11-23 04:10:00,
2013-11-22 23:15:00,61.4,58.5,30.05,East,98,0.0,0.0,90,0.00,,,0.00,VWS V14.01,2013-11-23 04:15:00,
2013-11-22 23:20:00,61.4,58.5,30.05,East,96,0.0,0.0,90,0.00,,,0.00,VWS V14.01,2013-11-23 04:20:00,
2013-11-22 23:25:00,61.3,58.7,30.05,NE,51,0.0,0.0,91,0.00,,,0.00,VWS V14.01,2013-11-23 04:25:00,
2013-11-22 23:30:00,61.2,58.6,30.04,NE,50,0.0,0.0,91,0.00,,,0.00,VWS V14.01,2013-11-23 04:30:00,
2013-11-22 23:35:00,61.1,58.5,30.04,ESE,104,0.0,0.0,91,0.00,,,0.00,VWS V14.01,2013-11-23 04:35:00,
2013-11-22 23:40:00,61.1,58.5,30.04,SE,134,0.0,0.0,91,0.00,,,0.00,VWS V14.01,2013-11-23 04:40:00,
2013-11-22 23:45:00,61.0,58.4,30.04,SE,134,0.0,0.0,91,0.00,,,0.00,VWS V14.01,2013-11-23 04:45:00,
2013-11-22 23:50:00,60.9,58.3,30.04,SE,134,0.0,0.0,91,0.00,,,0.00,VWS V14.01,2013-11-23 04:50:00,
2013-11-22 23:55:00,60.8,58.5,30.04,ESE,109,0.0,0.0,92,0.00,,,0.00,VWS V14.01,2013-11-23 04:55:00,